Time;durP1;ratioP1;P1;durP2;ratioP2;P2;SDS_P1;SDS_P2;PMS_P1;PMS_P2;Temp;Humidity;BMP_temperature;BMP_pressure;BME280_temperature;BME280_humidity;BME280_pressure;Samples;Min_cycle;Max_cycle;Signal;HPM_P1;HPM_P2
2021/11/29 00:00:41;;;;;;;5.25;4.38;;;;;;;;;;5007971;28;20049;-47
2021/11/29 00:03:10;;;;;;;4.68;4.05;;;;;;;;;;5008664;28;20038;-51
2021/11/29 00:05:35;;;;;;;4.97;3.63;;;;;;;;;;5008193;28;20459;-48
2021/11/29 00:08:02;;;;;;;6.97;4.97;;;;;;;;;;5008762;28;20030;-49
2021/11/29 00:10:29;;;;;;;5.35;4.50;;;;;;;;;;5009011;28;20044;-47
2021/11/29 00:12:55;;;;;;;16.30;3.47;;;;;;;;;;5007920;28;20458;-48
2021/11/29 00:15:21;;;;;;;7.20;3.65;;;;;;;;;;5008721;28;20070;-48
2021/11/29 00:17:47;;;;;;;5.03;3.63;;;;;;;;;;5009004;28;20077;-48
2021/11/29 00:20:14;;;;;;;7.60;4.35;;;;;;;;;;5008406;28;20116;-47
2021/11/29 00:22:40;;;;;;;13.15;3.92;;;;;;;;;;5007980;28;20038;-48
2021/11/29 00:25:07;;;;;;;14.10;4.20;;;;;;;;;;5008137;28;20446;-59
2021/11/29 00:27:33;;;;;;;5.72;3.30;;;;;;;;;;5007925;28;20474;-60
2021/11/29 00:29:58;;;;;;;4.55;3.70;;;;;;;;;;5007112;28;20052;-59
2021/11/29 00:32:24;;;;;;;4.25;2.90;;;;;;;;;;5008973;28;20033;-59
2021/11/29 00:34:50;;;;;;;4.82;4.30;;;;;;;;;;5008466;28;20033;-47
2021/11/29 00:37:16;;;;;;;4.72;3.90;;;;;;;;;;5009083;28;20022;-59
2021/11/29 00:39:42;;;;;;;4.25;3.58;;;;;;;;;;5009788;28;20048;-60
2021/11/29 00:42:07;;;;;;;4.55;3.65;;;;;;;;;;5012128;28;20036;-47
2021/11/29 00:44:32;;;;;;;4.30;3.00;;;;;;;;;;5012108;28;20467;-50
2021/11/29 00:46:58;;;;;;;4.60;3.85;;;;;;;;;;5012506;28;20029;-48
2021/11/29 00:49:23;;;;;;;4.63;3.70;;;;;;;;;;5011304;28;20677;-47
2021/11/29 00:51:49;;;;;;;3.75;3.25;;;;;;;;;;5011924;28;20033;-51
2021/11/29 00:54:14;;;;;;;6.63;4.43;;;;;;;;;;5012316;28;20050;-49
2021/11/29 00:56:40;;;;;;;6.90;3.70;;;;;;;;;;5011696;28;20026;-47
2021/11/29 00:59:06;;;;;;;4.90;3.92;;;;;;;;;;5010380;28;20034;-47
2021/11/29 01:01:31;;;;;;;4.50;4.10;;;;;;;;;;5012188;28;20021;-49
2021/11/29 01:03:57;;;;;;;5.18;4.20;;;;;;;;;;5012004;28;20057;-50
2021/11/29 01:06:22;;;;;;;5.07;4.15;;;;;;;;;;5011748;28;20466;-47
2021/11/29 01:08:48;;;;;;;4.55;3.65;;;;;;;;;;5010353;28;20653;-49
2021/11/29 01:11:13;;;;;;;7.45;3.20;;;;;;;;;;5011936;28;20479;-50
2021/11/29 01:13:40;;;;;;;4.55;3.72;;;;;;;;;;5011654;28;20387;-51
2021/11/29 01:16:06;;;;;;;9.20;4.05;;;;;;;;;;5011339;28;20030;-45
2021/11/29 01:18:32;;;;;;;5.15;4.30;;;;;;;;;;5010302;28;20026;-47
2021/11/29 01:20:58;;;;;;;5.15;4.63;;;;;;;;;;5011267;28;20048;-49
2021/11/29 01:23:23;;;;;;;5.78;4.53;;;;;;;;;;5011532;28;20048;-47
2021/11/29 01:25:50;;;;;;;5.47;4.78;;;;;;;;;;5011353;28;20037;-50
2021/11/29 01:28:16;;;;;;;8.38;5.13;;;;;;;;;;5011295;28;20030;-47
2021/11/29 01:30:41;;;;;;;5.32;4.50;;;;;;;;;;5009434;28;20380;-49
2021/11/29 01:33:07;;;;;;;4.50;3.90;;;;;;;;;;5011394;28;20046;-49
2021/11/29 01:35:33;;;;;;;6.10;4.30;;;;;;;;;;5011077;28;20057;-50
2021/11/29 01:37:58;;;;;;;5.90;4.50;;;;;;;;;;5010997;28;20085;-50
2021/11/29 01:40:24;;;;;;;7.35;5.47;;;;;;;;;;5011107;28;20411;-51
2021/11/29 01:42:59;;;;;;;4.35;3.80;;;;;;;;;;5010422;28;20037;-46
2021/11/29 01:45:26;;;;;;;3.63;3.25;;;;;;;;;;5010693;28;20049;-48
2021/11/29 01:47:52;;;;;;;10.27;5.95;;;;;;;;;;5011042;28;20026;-52
2021/11/29 01:50:17;;;;;;;5.80;4.38;;;;;;;;;;5008740;28;20044;-48
2021/11/29 01:52:43;;;;;;;4.53;4.13;;;;;;;;;;5010144;28;20034;-50
2021/11/29 01:55:08;;;;;;;5.13;4.65;;;;;;;;;;5011048;28;20034;-60
2021/11/29 01:57:34;;;;;;;8.57;5.13;;;;;;;;;;5010288;28;20034;-60
2021/11/29 02:00:00;;;;;;;4.95;3.75;;;;;;;;;;5009769;28;20121;-59
2021/11/29 02:02:27;;;;;;;9.45;5.55;;;;;;;;;;5010858;28;20029;-50
2021/11/29 02:04:55;;;;;;;4.63;4.10;;;;;;;;;;5009642;28;20119;-60
2021/11/29 02:07:20;;;;;;;6.15;5.30;;;;;;;;;;5010937;28;20037;-59
2021/11/29 02:09:46;;;;;;;9.18;6.00;;;;;;;;;;5010609;28;20359;-61
2021/11/29 02:12:11;;;;;;;4.20;3.80;;;;;;;;;;5009578;28;20061;-60
2021/11/29 02:14:38;;;;;;;6.05;5.45;;;;;;;;;;5009748;28;20042;-60
2021/11/29 02:17:06;;;;;;;6.10;5.30;;;;;;;;;;5010608;28;20057;-60
2021/11/29 02:19:37;;;;;;;5.80;4.82;;;;;;;;;;5009624;28;20049;-60
2021/11/29 02:22:03;;;;;;;;;;;;;;;;;;5011165;28;20037;-59
2021/11/29 02:24:28;;;;;;;6.22;5.63;;;;;;;;;;5010105;28;19910;-59
2021/11/29 02:26:54;;;;;;;8.00;5.00;;;;;;;;;;5010108;28;20047;-59
2021/11/29 02:29:19;;;;;;;6.70;4.25;;;;;;;;;;5009885;28;20113;-59
2021/11/29 02:31:47;;;;;;;5.10;3.95;;;;;;;;;;5009334;28;20518;-59
2021/11/29 02:34:24;;;;;;;7.00;6.30;;;;;;;;;;5009545;28;20286;-51
2021/11/29 02:36:51;;;;;;;8.10;5.45;;;;;;;;;;5007984;28;20045;-48
2021/11/29 02:39:17;;;;;;;8.50;4.65;;;;;;;;;;5009618;28;20478;-49
2021/11/29 02:41:44;;;;;;;5.32;4.35;;;;;;;;;;5010209;28;20057;-49
2021/11/29 02:44:10;;;;;;;11.23;4.70;;;;;;;;;;5009178;28;20057;-51
2021/11/29 02:46:36;;;;;;;5.38;4.72;;;;;;;;;;5009075;28;20030;-51
2021/11/29 02:49:03;;;;;;;5.05;3.92;;;;;;;;;;5009960;28;20506;-47
2021/11/29 02:51:30;;;;;;;9.23;5.32;;;;;;;;;;5009088;28;20037;-50
2021/11/29 02:54:10;;;;;;;5.53;4.50;;;;;;;;;;5009959;28;20042;-59
2021/11/29 02:56:39;;;;;;;6.72;4.55;;;;;;;;;;5009598;28;20040;-59
2021/11/29 02:59:06;;;;;;;4.68;3.55;;;;;;;;;;5009238;28;20107;-59
2021/11/29 03:01:31;;;;;;;5.78;4.45;;;;;;;;;;5008907;28;20462;-59
2021/11/29 03:03:57;;;;;;;4.28;3.83;;;;;;;;;;5009634;28;20168;-60
2021/11/29 03:06:22;;;;;;;6.85;4.63;;;;;;;;;;5009466;28;20041;-59
2021/11/29 03:08:49;;;;;;;5.88;4.20;;;;;;;;;;5009444;28;20053;-59
2021/11/29 03:11:16;;;;;;;4.43;3.85;;;;;;;;;;5009923;28;20038;-59
2021/11/29 03:13:42;;;;;;;4.13;3.42;;;;;;;;;;5008933;28;20033;-59
2021/11/29 03:16:07;;;;;;;4.63;3.42;;;;;;;;;;5009837;28;20530;-59
2021/11/29 03:18:38;;;;;;;6.93;4.05;;;;;;;;;;5009747;28;20041;-59
2021/11/29 03:21:05;;;;;;;4.70;3.50;;;;;;;;;;5008928;28;20913;-59
2021/11/29 03:23:31;;;;;;;4.65;3.42;;;;;;;;;;5009431;28;20064;-59
2021/11/29 03:25:57;;;;;;;3.80;3.40;;;;;;;;;;5009471;28;20046;-59
2021/11/29 03:28:23;;;;;;;3.45;2.70;;;;;;;;;;5008967;28;20038;-59
2021/11/29 03:30:49;;;;;;;4.15;3.05;;;;;;;;;;5007487;28;20095;-59
2021/11/29 03:33:14;;;;;;;3.50;2.85;;;;;;;;;;5008401;28;20052;-59
2021/11/29 03:35:41;;;;;;;4.30;3.05;;;;;;;;;;5008972;28;20121;-59
2021/11/29 03:38:07;;;;;;;3.83;3.40;;;;;;;;;;5009192;28;20122;-59
2021/11/29 03:40:33;;;;;;;3.22;2.72;;;;;;;;;;5009085;28;20084;-60
2021/11/29 03:42:58;;;;;;;13.30;3.90;;;;;;;;;;5007373;28;20033;-59
2021/11/29 03:45:24;;;;;;;4.05;3.55;;;;;;;;;;5023304;28;20030;-59
2021/11/29 03:47:49;;;;;;;5.00;3.28;;;;;;;;;;5009258;28;20030;-59
2021/11/29 03:50:15;;;;;;;4.32;3.47;;;;;;;;;;5007766;28;20066;-59
2021/11/29 03:52:40;;;;;;;5.30;4.07;;;;;;;;;;5008898;28;20104;-59
2021/11/29 03:55:06;;;;;;;3.50;2.70;;;;;;;;;;5008836;28;20022;-59
2021/11/29 03:57:32;;;;;;;7.72;4.57;;;;;;;;;;5007730;28;20049;-59
2021/11/29 03:59:57;;;;;;;4.20;3.38;;;;;;;;;;5009062;28;20041;-59
2021/11/29 04:02:23;;;;;;;3.58;2.70;;;;;;;;;;5009119;28;20616;-59
2021/11/29 04:04:48;;;;;;;9.65;3.47;;;;;;;;;;5007869;28;20040;-59
2021/11/29 04:07:14;;;;;;;4.30;3.40;;;;;;;;;;5008928;28;20534;-59
2021/11/29 04:09:39;;;;;;;3.50;2.85;;;;;;;;;;5008614;28;20382;-59
2021/11/29 04:12:05;;;;;;;4.32;3.55;;;;;;;;;;5008938;28;20046;-59
2021/11/29 04:14:31;;;;;;;3.47;3.05;;;;;;;;;;5009876;28;20112;-59
2021/11/29 04:16:56;;;;;;;4.05;3.15;;;;;;;;;;5012661;28;20117;-58
2021/11/29 04:19:22;;;;;;;3.45;2.55;;;;;;;;;;5010865;28;20038;-59
2021/11/29 04:21:48;;;;;;;4.55;3.20;;;;;;;;;;5012087;28;20133;-59
2021/11/29 04:24:15;;;;;;;3.33;3.00;;;;;;;;;;5012563;28;20034;-59
2021/11/29 04:26:42;;;;;;;4.45;3.22;;;;;;;;;;5011775;28;20099;-59
2021/11/29 04:29:17;;;;;;;3.00;2.40;;;;;;;;;;5012535;28;20466;-59
2021/11/29 04:31:43;;;;;;;3.95;2.75;;;;;;;;;;5011970;28;20121;-59
2021/11/29 04:34:08;;;;;;;5.00;3.50;;;;;;;;;;5012476;28;20144;-59
2021/11/29 04:36:35;;;;;;;5.13;2.88;;;;;;;;;;5011531;28;20104;-59
2021/11/29 04:39:01;;;;;;;4.03;3.03;;;;;;;;;;5012384;28;20045;-59
2021/11/29 04:41:26;;;;;;;3.97;3.03;;;;;;;;;;5011760;28;20025;-59
2021/11/29 04:43:52;;;;;;;3.33;2.55;;;;;;;;;;5011255;28;20115;-59
2021/11/29 04:46:17;;;;;;;4.13;3.25;;;;;;;;;;5012429;28;20044;-59
2021/11/29 04:48:43;;;;;;;4.60;3.88;;;;;;;;;;5011963;28;20026;-59
2021/11/29 04:51:09;;;;;;;4.38;2.65;;;;;;;;;;5010763;28;20034;-58
2021/11/29 04:53:35;;;;;;;4.82;3.28;;;;;;;;;;5011870;28;20072;-59
2021/11/29 04:56:01;;;;;;;4.03;2.95;;;;;;;;;;5011984;28;20052;-59
2021/11/29 04:58:26;;;;;;;4.25;3.28;;;;;;;;;;5011739;28;20033;-59
2021/11/29 05:00:52;;;;;;;7.00;4.80;;;;;;;;;;5011623;28;20030;-59
2021/11/29 05:03:19;;;;;;;5.65;4.20;;;;;;;;;;5011481;28;20026;-59
2021/11/29 05:05:44;;;;;;;4.47;2.95;;;;;;;;;;5011119;28;20038;-59
2021/11/29 05:08:09;;;;;;;4.18;3.20;;;;;;;;;;5012080;28;20040;-59
2021/11/29 05:10:35;;;;;;;3.25;2.90;;;;;;;;;;5011609;28;20033;-59
2021/11/29 05:13:00;;;;;;;3.70;3.30;;;;;;;;;;5010779;28;20030;-59
2021/11/29 05:15:26;;;;;;;4.18;3.55;;;;;;;;;;5012003;28;20438;-59
2021/11/29 05:17:51;;;;;;;3.47;2.58;;;;;;;;;;5010388;28;20041;-59
2021/11/29 05:20:16;;;;;;;3.25;2.88;;;;;;;;;;5011393;28;20113;-60
2021/11/29 05:22:42;;;;;;;3.95;3.20;;;;;;;;;;5011562;28;20474;-59
2021/11/29 05:25:07;;;;;;;3.47;2.95;;;;;;;;;;5011198;28;20034;-59
2021/11/29 05:27:33;;;;;;;4.97;3.38;;;;;;;;;;5010275;28;20112;-59
2021/11/29 05:29:58;;;;;;;6.30;3.92;;;;;;;;;;5011138;28;20043;-60
2021/11/29 05:32:24;;;;;;;4.05;3.35;;;;;;;;;;5011532;28;20053;-59
2021/11/29 05:34:49;;;;;;;4.72;3.20;;;;;;;;;;5010249;28;20041;-59
2021/11/29 05:37:15;;;;;;;9.13;4.78;;;;;;;;;;5011406;28;20029;-59
2021/11/29 05:39:41;;;;;;;5.55;3.03;;;;;;;;;;5010984;28;20034;-59
2021/11/29 05:42:06;;;;;;;6.78;4.03;;;;;;;;;;5010632;28;20034;-59
2021/11/29 05:44:32;;;;;;;3.63;2.83;;;;;;;;;;5010551;28;20101;-59
2021/11/29 05:46:57;;;;;;;4.95;3.65;;;;;;;;;;5011587;28;20041;-59
2021/11/29 05:49:22;;;;;;;4.75;3.88;;;;;;;;;;5009593;28;20030;-59
2021/11/29 05:51:48;;;;;;;6.03;3.33;;;;;;;;;;5010571;28;20025;-59
2021/11/29 05:54:13;;;;;;;9.60;4.50;;;;;;;;;;5010367;28;20037;-60
2021/11/29 05:56:39;;;;;;;3.83;3.42;;;;;;;;;;5010651;28;20470;-59
2021/11/29 05:59:04;;;;;;;12.05;3.20;;;;;;;;;;5010493;28;20033;-59
2021/11/29 06:01:30;;;;;;;4.50;3.30;;;;;;;;;;5009000;28;20456;-60
2021/11/29 06:03:55;;;;;;;5.07;3.92;;;;;;;;;;5010884;28;20046;-60
2021/11/29 06:06:21;;;;;;;6.18;4.03;;;;;;;;;;5010311;28;20061;-59
2021/11/29 06:08:46;;;;;;;3.58;3.00;;;;;;;;;;5010825;28;20088;-59
2021/11/29 06:11:12;;;;;;;5.70;4.28;;;;;;;;;;5010780;28;20060;-60
2021/11/29 06:13:37;;;;;;;3.65;2.90;;;;;;;;;;5009864;28;20030;-59
2021/11/29 06:16:03;;;;;;;5.07;3.08;;;;;;;;;;5011228;28;20095;-60
2021/11/29 06:18:28;;;;;;;5.00;3.45;;;;;;;;;;5006497;28;20029;-60
2021/11/29 06:20:54;;;;;;;3.60;3.20;;;;;;;;;;5009741;28;20041;-61
2021/11/29 06:23:19;;;;;;;4.13;2.95;;;;;;;;;;5010531;28;20053;-59
2021/11/29 06:25:45;;;;;;;5.93;3.45;;;;;;;;;;5010084;28;20044;-59
2021/11/29 06:28:10;;;;;;;4.95;3.70;;;;;;;;;;5009394;28;20069;-59
2021/11/29 06:30:36;;;;;;;3.97;3.15;;;;;;;;;;5008301;28;20460;-59
2021/11/29 06:33:02;;;;;;;4.57;3.22;;;;;;;;;;5009258;28;20030;-60
2021/11/29 06:35:27;;;;;;;3.80;3.40;;;;;;;;;;5009545;28;20038;-61
2021/11/29 06:38:01;;;;;;;4.95;3.95;;;;;;;;;;5008533;28;20021;-60
2021/11/29 06:40:27;;;;;;;3.58;3.28;;;;;;;;;;5009349;28;20117;-59
2021/11/29 06:42:54;;;;;;;5.18;4.07;;;;;;;;;;5009698;28;20056;-60
2021/11/29 06:45:20;;;;;;;5.80;5.25;;;;;;;;;;5009607;28;20049;-59
2021/11/29 06:47:47;;;;;;;4.20;3.78;;;;;;;;;;5009446;28;20030;-59
2021/11/29 06:50:13;;;;;;;5.10;3.90;;;;;;;;;;5007758;28;20041;-59
2021/11/29 06:52:38;;;;;;;8.35;5.93;;;;;;;;;;5008515;28;20045;-60
2021/11/29 06:55:05;;;;;;;4.25;3.70;;;;;;;;;;5010181;28;20046;-59
2021/11/29 06:57:31;;;;;;;4.72;4.22;;;;;;;;;;5009920;28;20038;-59
2021/11/29 06:59:56;;;;;;;3.30;2.95;;;;;;;;;;5008629;28;20121;-60
2021/11/29 07:02:26;;;;;;;5.53;4.80;;;;;;;;;;5009115;28;20403;-59
2021/11/29 07:04:53;;;;;;;4.03;3.63;;;;;;;;;;5008265;28;20033;-59
2021/11/29 07:07:19;;;;;;;3.50;2.92;;;;;;;;;;5010016;28;20463;-59
2021/11/29 07:09:44;;;;;;;4.25;3.85;;;;;;;;;;5007893;28;20048;-59
2021/11/29 07:12:10;;;;;;;3.65;3.25;;;;;;;;;;5008543;28;20321;-59
2021/11/29 07:14:36;;;;;;;5.97;3.60;;;;;;;;;;5008299;28;20173;-59
2021/11/29 07:17:02;;;;;;;4.18;3.15;;;;;;;;;;5002482;28;20088;-59
2021/11/29 07:19:28;;;;;;;4.00;3.60;;;;;;;;;;5007484;28;20026;-59
2021/11/29 07:21:55;;;;;;;3.42;3.03;;;;;;;;;;5005897;28;20048;-59
2021/11/29 07:24:21;;;;;;;4.68;3.92;;;;;;;;;;5007682;28;20096;-59
2021/11/29 07:26:46;;;;;;;8.93;4.28;;;;;;;;;;5008376;28;20606;-59
2021/11/29 07:29:14;;;;;;;4.20;3.25;;;;;;;;;;5005517;28;20030;-58
2021/11/29 07:31:40;;;;;;;4.03;3.15;;;;;;;;;;5007388;28;20034;-59
2021/11/29 07:34:06;;;;;;;4.85;3.97;;;;;;;;;;5008632;28;20044;-58
2021/11/29 07:36:31;;;;;;;5.82;3.83;;;;;;;;;;5005864;28;20033;-59
2021/11/29 07:38:56;;;;;;;3.95;3.38;;;;;;;;;;5008488;28;20467;-59
2021/11/29 07:41:23;;;;;;;3.58;3.03;;;;;;;;;;5008086;28;20030;-59
2021/11/29 07:43:48;;;;;;;5.18;4.20;;;;;;;;;;5008813;28;20030;-59
2021/11/29 07:46:14;;;;;;;4.35;3.67;;;;;;;;;;5008104;28;20042;-58
2021/11/29 07:48:40;;;;;;;3.78;2.97;;;;;;;;;;5010652;28;20117;-59
2021/11/29 07:51:05;;;;;;;4.72;3.83;;;;;;;;;;5010457;28;20045;-59
2021/11/29 07:53:31;;;;;;;4.20;3.80;;;;;;;;;;5011170;28;20030;-59
2021/11/29 07:55:57;;;;;;;4.47;3.78;;;;;;;;;;5010154;28;20124;-60
2021/11/29 07:58:23;;;;;;;4.90;3.78;;;;;;;;;;5002341;28;20045;-47
2021/11/29 08:00:50;;;;;;;3.90;3.20;;;;;;;;;;5005654;28;20030;-60
2021/11/29 08:03:16;;;;;;;4.60;3.88;;;;;;;;;;5009732;28;20052;-60
2021/11/29 08:05:41;;;;;;;4.18;3.67;;;;;;;;;;5008056;28;20038;-60
2021/11/29 08:08:08;;;;;;;5.45;3.67;;;;;;;;;;5010065;28;20038;-49
2021/11/29 08:10:36;;;;;;;3.72;2.90;;;;;;;;;;5009894;28;20080;-49
2021/11/29 08:13:02;;;;;;;4.07;3.50;;;;;;;;;;5009484;28;20044;-45
2021/11/29 08:15:28;;;;;;;3.60;2.95;;;;;;;;;;5007973;28;20041;-46
2021/11/29 08:17:54;;;;;;;4.18;3.65;;;;;;;;;;5008157;28;20061;-46
2021/11/29 08:20:23;;;;;;;3.95;3.05;;;;;;;;;;5008820;28;20100;-47
2021/11/29 08:22:48;;;;;;;3.90;3.20;;;;;;;;;;5009480;28;20030;-46
2021/11/29 08:25:15;;;;;;;3.95;3.25;;;;;;;;;;5008913;28;20462;-47
2021/11/29 08:27:40;;;;;;;3.97;2.90;;;;;;;;;;5008778;28;20025;-47
2021/11/29 08:30:08;;;;;;;3.35;2.90;;;;;;;;;;5009061;28;20044;-47
2021/11/29 08:32:34;;;;;;;3.70;2.97;;;;;;;;;;5008927;28;20041;-47
2021/11/29 08:35:00;;;;;;;3.90;3.50;;;;;;;;;;5017772;28;20037;-50
2021/11/29 08:37:26;;;;;;;3.00;2.53;;;;;;;;;;5008383;28;20060;-48
2021/11/29 08:39:51;;;;;;;3.10;2.67;;;;;;;;;;5007914;28;20162;-46
2021/11/29 08:42:16;;;;;;;3.97;3.08;;;;;;;;;;5009337;28;20033;-50
2021/11/29 08:44:42;;;;;;;3.72;2.65;;;;;;;;;;5008734;28;20531;-51
2021/11/29 08:47:07;;;;;;;4.45;2.28;;;;;;;;;;5008373;28;20044;-51
2021/11/29 08:49:33;;;;;;;3.50;2.22;;;;;;;;;;5008455;28;20041;-48
2021/11/29 08:51:58;;;;;;;4.13;3.35;;;;;;;;;;5008903;28;20045;-50
2021/11/29 08:54:24;;;;;;;3.55;2.88;;;;;;;;;;5009366;28;20053;-46
2021/11/29 08:56:50;;;;;;;2.72;2.03;;;;;;;;;;5009102;28;20075;-49
2021/11/29 08:59:18;;;;;;;4.47;3.20;;;;;;;;;;4998000;28;20434;-50
2021/11/29 09:01:45;;;;;;;3.35;2.65;;;;;;;;;;5007551;28;20160;-51
2021/11/29 09:04:11;;;;;;;3.45;2.58;;;;;;;;;;5005424;28;20044;-48
2021/11/29 09:06:37;;;;;;;7.00;3.45;;;;;;;;;;5004964;28;20128;-50
2021/11/29 09:09:03;;;;;;;3.03;2.45;;;;;;;;;;5008494;28;20117;-49
2021/11/29 09:11:29;;;;;;;3.17;2.55;;;;;;;;;;5007516;28;20689;-47
2021/11/29 09:13:54;;;;;;;3.40;2.78;;;;;;;;;;5008337;28;20046;-46
2021/11/29 09:16:20;;;;;;;5.38;3.35;;;;;;;;;;5008135;28;20096;-52
2021/11/29 09:18:46;;;;;;;5.60;3.05;;;;;;;;;;5006675;28;20037;-48
2021/11/29 09:21:13;;;;;;;3.65;2.95;;;;;;;;;;5008334;28;20494;-49
2021/11/29 09:23:41;;;;;;;4.40;2.58;;;;;;;;;;5005981;28;20038;-48
2021/11/29 09:26:06;;;;;;;10.13;3.47;;;;;;;;;;5005665;28;20042;-46
2021/11/29 09:28:32;;;;;;;3.38;2.38;;;;;;;;;;5004597;28;20415;-51
2021/11/29 09:30:57;;;;;;;5.43;3.35;;;;;;;;;;5005757;28;20045;-46
2021/11/29 09:33:23;;;;;;;2.90;2.45;;;;;;;;;;5006237;28;20030;-47
2021/11/29 09:35:49;;;;;;;4.60;3.28;;;;;;;;;;5004885;28;20036;-46
2021/11/29 09:38:15;;;;;;;4.43;3.30;;;;;;;;;;5005843;28;20057;-50
2021/11/29 09:40:41;;;;;;;3.35;2.85;;;;;;;;;;5005600;28;20564;-50
2021/11/29 09:43:11;;;;;;;4.22;2.80;;;;;;;;;;5000140;28;20472;-46
2021/11/29 09:45:40;;;;;;;3.35;2.65;;;;;;;;;;5007208;28;20037;-48
2021/11/29 09:48:10;;;;;;;4.03;3.47;;;;;;;;;;5007699;28;20034;-51
2021/11/29 09:50:42;;;;;;;3.47;2.63;;;;;;;;;;5005468;28;20087;-50
2021/11/29 09:53:09;;;;;;;3.25;2.55;;;;;;;;;;5016155;28;20037;-50
2021/11/29 09:55:35;;;;;;;4.05;3.00;;;;;;;;;;5004521;28;20045;-47
2021/11/29 09:58:01;;;;;;;3.53;2.80;;;;;;;;;;5004845;28;20522;-48
2021/11/29 10:00:33;;;;;;;3.63;2.92;;;;;;;;;;5002229;28;20037;-49
2021/11/29 10:03:00;;;;;;;7.38;3.33;;;;;;;;;;5003701;28;20052;-49
2021/11/29 10:05:26;;;;;;;4.05;3.20;;;;;;;;;;5004766;28;20025;-51
2021/11/29 10:07:53;;;;;;;4.35;3.88;;;;;;;;;;5003368;28;20052;-48
2021/11/29 10:10:28;;;;;;;3.72;2.85;;;;;;;;;;5003047;28;20729;-50
2021/11/29 10:12:57;;;;;;;6.63;4.28;;;;;;;;;;5002503;28;20038;-49
2021/11/29 10:15:27;;;;;;;2.97;2.50;;;;;;;;;;5005218;28;20030;-50
2021/11/29 10:17:59;;;;;;;3.42;3.00;;;;;;;;;;5004007;28;20096;-48
2021/11/29 10:20:27;;;;;;;2.95;2.35;;;;;;;;;;5004117;28;20065;-50
2021/11/29 10:23:07;;;;;;;4.05;3.10;;;;;;;;;;5003778;28;20502;-51
2021/11/29 10:25:42;;;;;;;3.03;2.63;;;;;;;;;;5004464;28;20165;-47
2021/11/29 10:28:32;;;;;;;3.17;2.47;;;;;;;;;;5002909;28;20116;-50
2021/11/29 10:31:38;;;;;;;4.40;3.25;;;;;;;;;;5005938;28;20037;-60
2021/11/29 10:34:09;;;;;;;11.27;2.80;;;;;;;;;;5053096;28;20478;-59
2021/11/29 10:36:41;;;;;;;3.45;2.83;;;;;;;;;;5050664;28;20032;-59
2021/11/29 10:39:10;;;;;;;;;;;;;;;;;;5050089;28;20025;-59
2021/11/29 10:41:42;;;;;;;2.83;2.20;;;;;;;;;;5048883;28;20351;-58
2021/11/29 10:44:12;;;;;;;3.63;2.75;;;;;;;;;;5049476;28;20037;-59
2021/11/29 10:46:42;;;;;;;4.70;2.88;;;;;;;;;;5050179;28;20029;-59
2021/11/29 10:49:12;;;;;;;3.83;3.03;;;;;;;;;;5051701;28;20055;-59
2021/11/29 10:51:39;;;;;;;3.28;2.65;;;;;;;;;;5049481;28;20450;-59
2021/11/29 10:54:10;;;;;;;3.50;2.83;;;;;;;;;;5049917;28;20033;-59
2021/11/29 10:56:37;;;;;;;;;;;;;;;;;;5050144;28;20397;-59
2021/11/29 10:59:05;;;;;;;6.20;2.40;;;;;;;;;;5052310;28;19917;-58
2021/11/29 11:01:35;;;;;;;4.22;2.88;;;;;;;;;;5051044;28;20064;-59
2021/11/29 11:04:01;;;;;;;3.67;2.92;;;;;;;;;;5049438;28;20033;-58
2021/11/29 11:06:29;;;;;;;6.45;2.97;;;;;;;;;;5048792;28;20556;-58
2021/11/29 11:08:55;;;;;;;2.90;2.50;;;;;;;;;;5046864;28;20363;-58
2021/11/29 11:11:51;;;;;;;3.10;2.80;;;;;;;;;;5051949;28;20051;-59
2021/11/29 11:14:21;;;;;;;3.85;2.85;;;;;;;;;;5043971;28;20119;-58
2021/11/29 11:16:56;;;;;;;3.35;3.03;;;;;;;;;;5054331;28;20348;-59
2021/11/29 11:19:34;;;;;;;3.67;3.00;;;;;;;;;;5046479;28;20056;-59
2021/11/29 11:22:11;;;;;;;4.30;3.33;;;;;;;;;;5051176;28;20036;-59
2021/11/29 11:24:42;;;;;;;2.67;2.13;;;;;;;;;;5051983;28;20077;-59
2021/11/29 11:27:08;;;;;;;2.90;2.50;;;;;;;;;;5047619;28;20029;-59
2021/11/29 11:29:38;;;;;;;4.13;3.13;;;;;;;;;;5048243;28;20748;-59
2021/11/29 11:32:09;;;;;;;2.75;2.17;;;;;;;;;;5049067;28;20037;-59
2021/11/29 11:34:35;;;;;;;3.10;2.78;;;;;;;;;;5048201;28;20494;-59
2021/11/29 11:37:03;;;;;;;3.20;2.72;;;;;;;;;;5048153;28;20041;-59
2021/11/29 11:39:28;;;;;;;2.95;2.65;;;;;;;;;;5050033;28;20033;-58
2021/11/29 11:41:55;;;;;;;2.92;2.38;;;;;;;;;;5048903;28;20052;-58
2021/11/29 11:44:20;;;;;;;4.18;3.45;;;;;;;;;;5042142;28;20418;-59
2021/11/29 11:46:48;;;;;;;2.90;2.38;;;;;;;;;;5032681;28;20084;-60
2021/11/29 11:49:14;;;;;;;3.08;2.50;;;;;;;;;;5034833;28;20044;-60
2021/11/29 11:51:39;;;;;;;3.80;2.95;;;;;;;;;;5032730;28;20038;-60
2021/11/29 11:54:05;;;;;;;4.63;3.33;;;;;;;;;;5036607;28;20077;-61
2021/11/29 11:56:30;;;;;;;3.20;2.85;;;;;;;;;;5051273;28;20075;-60
2021/11/29 11:59:08;;;;;;;4.30;2.95;;;;;;;;;;5037100;28;20034;-60
2021/11/29 12:01:39;;;;;;;3.05;2.63;;;;;;;;;;5035754;28;20526;-61
2021/11/29 12:04:11;;;;;;;3.73;3.43;;;;;;;;;;5038676;28;20061;-61
2021/11/29 12:06:37;;;;;;;3.33;2.70;;;;;;;;;;5035668;28;20041;-60
2021/11/29 12:09:06;;;;;;;4.45;2.90;;;;;;;;;;5032696;28;20478;-61
2021/11/29 12:11:38;;;;;;;4.60;3.30;;;;;;;;;;5035311;28;20414;-60
2021/11/29 12:14:11;;;;;;;5.18;2.90;;;;;;;;;;5035118;28;20750;-60
2021/11/29 12:16:38;;;;;;;3.10;2.53;;;;;;;;;;5034478;28;20048;-60
2021/11/29 12:19:05;;;;;;;4.50;3.15;;;;;;;;;;5032520;28;20025;-61
2021/11/29 12:21:39;;;;;;;3.83;2.78;;;;;;;;;;5034738;28;20071;-61
2021/11/29 12:24:09;;;;;;;3.38;2.58;;;;;;;;;;5034723;28;20025;-60
2021/11/29 12:26:43;;;;;;;4.30;3.13;;;;;;;;;;5035832;28;20063;-59
2021/11/29 12:29:24;;;;;;;4.07;2.92;;;;;;;;;;5035590;28;20042;-60
2021/11/29 12:32:06;;;;;;;3.20;2.70;;;;;;;;;;5033927;28;20033;-60
2021/11/29 12:34:43;;;;;;;11.30;4.25;;;;;;;;;;5020996;28;20098;-61
2021/11/29 12:37:14;;;;;;;3.75;3.13;;;;;;;;;;5036439;28;20049;-59
2021/11/29 12:39:54;;;;;;;3.95;2.63;;;;;;;;;;5033589;28;20465;-60
2021/11/29 12:42:19;;;;;;;4.20;3.47;;;;;;;;;;5035115;28;20037;-59
2021/11/29 12:44:48;;;;;;;3.40;2.92;;;;;;;;;;5037217;28;20509;-60
2021/11/29 12:47:25;;;;;;;2.88;2.38;;;;;;;;;;5036132;28;20029;-60
2021/11/29 12:49:52;;;;;;;2.85;2.35;;;;;;;;;;5035309;28;20467;-61
2021/11/29 12:52:26;;;;;;;3.35;2.65;;;;;;;;;;5040223;28;20472;-60
2021/11/29 12:54:53;;;;;;;4.65;3.78;;;;;;;;;;5032490;28;20037;-60
2021/11/29 12:57:21;;;;;;;3.00;2.55;;;;;;;;;;5036838;28;20120;-59
2021/11/29 12:59:58;;;;;;;2.80;2.40;;;;;;;;;;5031996;28;20116;-61
2021/11/29 13:02:39;;;;;;;3.83;3.42;;;;;;;;;;5036169;28;20017;-60
2021/11/29 13:05:23;;;;;;;3.22;2.42;;;;;;;;;;5034481;28;20042;-60
2021/11/29 13:08:02;;;;;;;3.10;2.78;;;;;;;;;;5037879;28;20045;-60
2021/11/29 13:10:49;;;;;;;3.47;3.00;;;;;;;;;;5036597;28;20026;-61
2021/11/29 13:13:39;;;;;;;3.97;3.20;;;;;;;;;;5035658;28;20037;-59
2021/11/29 13:16:34;;;;;;;2.85;2.40;;;;;;;;;;5049676;28;20048;-60
2021/11/29 13:19:04;;;;;;;2.90;2.15;;;;;;;;;;5030677;28;20057;-61
2021/11/29 13:21:30;;;;;;;3.42;2.58;;;;;;;;;;5032022;28;20136;-59
2021/11/29 13:24:12;;;;;;;4.45;3.72;;;;;;;;;;5032109;28;20076;-60
2021/11/29 13:26:42;;;;;;;3.85;3.03;;;;;;;;;;5034437;28;20039;-60
2021/11/29 13:29:11;;;;;;;3.33;2.80;;;;;;;;;;5033997;28;20033;-60
2021/11/29 13:31:38;;;;;;;3.58;2.88;;;;;;;;;;5048561;28;20052;-61
2021/11/29 13:34:06;;;;;;;3.92;3.05;;;;;;;;;;5033504;28;20033;-61
2021/11/29 13:36:35;;;;;;;7.18;2.88;;;;;;;;;;5035312;28;20037;-60
2021/11/29 13:39:21;;;;;;;3.35;2.50;;;;;;;;;;5031673;28;20116;-58
2021/11/29 13:42:24;;;;;;;2.90;2.40;;;;;;;;;;5033198;28;20045;-60
2021/11/29 13:44:49;;;;;;;3.20;2.63;;;;;;;;;;5032678;28;20041;-60
2021/11/29 13:47:15;;;;;;;3.22;2.72;;;;;;;;;;5034506;28;20094;-60
2021/11/29 13:49:45;;;;;;;2.90;2.25;;;;;;;;;;5035587;28;20052;-60
2021/11/29 13:52:13;;;;;;;2.60;2.03;;;;;;;;;;5036061;28;20041;-60
2021/11/29 13:54:40;;;;;;;3.20;2.28;;;;;;;;;;5033760;28;20442;-60
2021/11/29 13:57:06;;;;;;;3.33;2.47;;;;;;;;;;5034791;28;20025;-60
2021/11/29 13:59:32;;;;;;;2.70;2.05;;;;;;;;;;5031180;28;20033;-60
2021/11/29 14:02:11;;;;;;;3.25;2.45;;;;;;;;;;5033703;28;20038;-60
2021/11/29 14:04:37;;;;;;;3.42;2.85;;;;;;;;;;5036156;28;20041;-60
2021/11/29 14:07:09;;;;;;;3.35;2.67;;;;;;;;;;5034122;28;20041;-60
2021/11/29 14:09:38;;;;;;;3.25;2.63;;;;;;;;;;5032679;28;20168;-60
2021/11/29 14:12:04;;;;;;;4.10;2.90;;;;;;;;;;5033242;28;20036;-60
2021/11/29 14:14:29;;;;;;;3.05;2.40;;;;;;;;;;5032581;28;20363;-59
2021/11/29 14:16:56;;;;;;;4.65;3.22;;;;;;;;;;5036925;28;20028;-59
2021/11/29 14:19:25;;;;;;;4.78;3.10;;;;;;;;;;5033827;28;20418;-59
2021/11/29 14:21:54;;;;;;;3.38;2.40;;;;;;;;;;5032500;28;20033;-60
2021/11/29 14:24:27;;;;;;;3.00;2.38;;;;;;;;;;5036055;28;20130;-59
2021/11/29 14:26:59;;;;;;;3.13;2.58;;;;;;;;;;5035506;28;20067;-59
2021/11/29 14:29:37;;;;;;;2.80;2.40;;;;;;;;;;5036232;28;20030;-59
2021/11/29 14:32:19;;;;;;;2.88;2.17;;;;;;;;;;5036950;28;20363;-58
2021/11/29 14:34:58;;;;;;;3.15;2.05;;;;;;;;;;5035647;28;20060;-60
2021/11/29 14:37:27;;;;;;;2.55;1.95;;;;;;;;;;5033895;28;20026;-60
2021/11/29 14:40:00;;;;;;;2.60;2.08;;;;;;;;;;5032509;28;20090;-59
2021/11/29 14:42:30;;;;;;;2.70;2.20;;;;;;;;;;5033957;28;20025;-59
2021/11/29 14:45:29;;;;;;;2.80;2.22;;;;;;;;;;5031683;28;20447;-59
2021/11/29 14:47:56;;;;;;;5.00;3.38;;;;;;;;;;5035076;28;20033;-60